Time;durP1;ratioP1;P1;durP2;ratioP2;P2;SDS_P1;SDS_P2;PMS_P1;PMS_P2;Temp;Humidity;BMP_temperature;BMP_pressure;BME280_temperature;BME280_humidity;BME280_pressure;Samples;Min_cycle;Max_cycle;Signal;HPM_P1;HPM_P2
2022/02/02 00:00:07;;;;;;;309.10;140.43;;;;;;;-2.54;64.54;93237.09;1655991;85;21201;-46
2022/02/02 00:02:47;;;;;;;309.75;141.10;;;;;;;-2.54;64.74;93230.97;1640573;85;21000;-45
2022/02/02 00:05:22;;;;;;;312.25;144.87;;;;;;;-2.57;64.64;93239.25;1654866;85;21012;-46
2022/02/02 00:08:07;;;;;;;363.27;154.55;;;;;;;-2.49;65.33;93243.38;1650386;85;21134;-46
2022/02/02 00:10:33;;;;;;;301.90;131.45;;;;;;;-2.27;64.99;93238.52;1655982;84;21700;-46
2022/02/02 00:12:45;;;;;;;309.83;138.20;;;;;;;-2.15;64.68;93236.06;1655724;85;21060;-46
2022/02/02 00:18:44;;;;;;;300.62;133.00;;;;;;;-2.11;64.42;93225.25;1648745;85;21075;-45
2022/02/02 00:20:31;;;;;;;302.93;137.25;;;;;;;-2.10;64.49;93220.79;1647764;85;20952;-46
2022/02/02 00:22:58;;;;;;;300.80;138.60;;;;;;;-2.12;64.58;93225.82;1659296;86;20968;-46
2022/02/02 00:25:30;;;;;;;333.23;151.80;;;;;;;-2.01;64.73;93222.98;1646944;85;20969;-46
2022/02/02 00:27:56;;;;;;;316.90;145.35;;;;;;;-1.88;64.92;93222.06;1644769;85;21104;-46
2022/02/02 00:30:23;;;;;;;295.82;136.55;;;;;;;-1.72;64.16;93210.84;1639461;86;21036;-46
2022/02/02 00:35:19;;;;;;;262.00;123.55;;;;;;;-1.74;63.74;93200.28;1643853;85;20972;-46
2022/02/02 00:37:44;;;;;;;292.02;133.80;;;;;;;-1.73;63.40;93184.32;1643759;85;20972;-46
2022/02/02 00:40:11;;;;;;;301.40;134.93;;;;;;;-1.82;63.54;93198.09;1635705;86;20977;-46
2022/02/02 00:42:37;;;;;;;296.43;135.10;;;;;;;-1.83;63.67;93186.56;1631386;85;21162;-46
2022/02/02 00:45:06;;;;;;;283.47;130.95;;;;;;;-1.75;63.51;93181.24;1651541;85;21808;-46
2022/02/02 00:47:38;;;;;;;323.23;148.90;;;;;;;-1.74;63.35;93188.16;1642925;85;20996;-46
2022/02/02 00:50:02;;;;;;;280.48;130.95;;;;;;;-1.80;63.32;93176.32;1650261;84;21000;-46
2022/02/02 00:52:29;;;;;;;273.38;128.97;;;;;;;-1.84;63.71;93164.84;1654365;85;21700;-45
2022/02/02 00:54:55;;;;;;;309.45;141.05;;;;;;;-1.73;63.93;93168.90;1658220;85;21585;-45
2022/02/02 00:57:27;;;;;;;282.45;130.80;;;;;;;-1.62;63.70;93160.65;1657728;84;21140;-45
2022/02/02 00:59:51;;;;;;;279.27;128.82;;;;;;;-1.64;63.43;93154.34;1659174;84;21579;-45
2022/02/02 01:02:18;;;;;;;242.07;113.35;;;;;;;-1.66;63.62;93145.87;1657650;84;21041;-45
2022/02/02 01:04:44;;;;;;;293.58;135.88;;;;;;;-1.69;63.88;93142.65;1655843;85;21012;-46
2022/02/02 01:07:19;;;;;;;261.80;124.70;;;;;;;-1.70;64.11;93134.39;1622873;88;20990;-46
2022/02/02 01:09:53;;;;;;;293.58;136.68;;;;;;;-1.62;64.31;93128.30;1602779;88;21877;-46
2022/02/02 01:12:37;;;;;;;299.98;134.97;;;;;;;-1.54;64.07;93123.73;1650771;85;21031;-46
2022/02/02 01:28:24;;;;;;;66.20;33.08;;;;;;;-0.85;62.90;93097.25;1601731;88;21107;-47
2022/02/02 01:30:52;;;;;;;29.00;17.15;;;;;;;-0.66;62.37;93092.44;1615349;88;21123;-47
2022/02/02 01:33:18;;;;;;;27.40;15.00;;;;;;;-0.46;61.35;93095.88;1621678;87;21037;-46
2022/02/02 01:35:46;;;;;;;41.98;20.35;;;;;;;-0.31;60.29;93090.36;1619010;88;21231;-46
2022/02/02 01:38:13;;;;;;;33.08;18.70;;;;;;;-0.11;60.60;93084.32;1651547;85;21434;-46
2022/02/02 01:40:46;;;;;;;36.73;19.85;;;;;;;0.12;60.15;93076.27;1602876;87;21071;-46
2022/02/02 01:43:18;;;;;;;20.82;13.18;;;;;;;0.33;59.07;93069.00;1600853;87;21037;-45
2022/02/02 01:46:22;;;;;;;15.63;11.03;;;;;;;0.53;57.95;93066.95;1613937;87;21015;-47
2022/02/02 01:55:58;;;;;;;12.90;8.98;;;;;;;1.01;57.52;93057.98;1654833;85;21075;-47
2022/02/02 02:00:55;;;;;;;16.82;9.48;;;;;;;0.95;56.60;93048.27;1642663;86;21161;-47
2022/02/02 02:03:22;;;;;;;16.93;9.53;;;;;;;0.93;56.82;93033.66;1649240;85;21008;-46
2022/02/02 02:05:49;;;;;;;17.23;9.53;;;;;;;0.93;57.01;93033.05;1644960;85;21225;-48
2022/02/02 02:08:17;;;;;;;13.90;9.38;;;;;;;0.93;56.80;93035.75;1645311;84;20989;-46
2022/02/02 02:10:44;;;;;;;12.00;8.95;;;;;;;0.90;56.52;93024.44;1660050;85;21155;-46
2022/02/02 02:13:19;;;;;;;19.30;10.63;;;;;;;0.89;56.94;93025.63;1644774;86;21152;-45
2022/02/02 02:15:43;;;;;;;16.87;9.15;;;;;;;0.83;56.86;93016.52;1657801;85;21554;-46
2022/02/02 02:18:10;;;;;;;19.17;10.80;;;;;;;0.84;57.14;93012.63;1628346;86;21040;-46
2022/02/02 02:20:37;;;;;;;17.98;9.68;;;;;;;0.89;56.83;93003.20;1654617;85;21010;-45
2022/02/02 02:23:04;;;;;;;12.60;8.48;;;;;;;0.85;56.99;93008.73;1645058;86;20980;-51
2022/02/02 02:25:32;;;;;;;13.32;8.28;;;;;;;0.82;56.20;93008.81;1642361;86;21156;-45
2022/02/02 02:28:21;;;;;;;15.85;9.33;;;;;;;0.82;55.37;92998.77;1595020;88;21015;-45
2022/02/02 02:57:49;;;;;;;16.75;10.38;;;;;;;1.01;55.59;92970.78;1655242;86;21652;-46
2022/02/02 03:49:53;;;;;;;13.48;8.80;;;;;;;0.93;53.67;92968.70;1662405;85;20997;-46
2022/02/02 03:53:18;;;;;;;9.70;7.70;;;;;;;0.97;53.75;92966.64;1663723;85;21573;-46
2022/02/02 03:57:33;;;;;;;36.13;19.60;;;;;;;1.06;53.53;92960.77;1649820;85;20968;-46
2022/02/02 04:05:35;;;;;;;19.50;12.88;;;;;;;1.23;52.92;92944.61;1663594;86;21086;-47
2022/02/02 04:08:09;;;;;;;30.68;17.02;;;;;;;1.24;53.06;92950.19;1641790;85;21051;-46
2022/02/02 04:10:23;;;;;;;22.35;12.95;;;;;;;1.28;53.15;92948.73;1651965;85;20972;-46
2022/02/02 04:37:24;;;;;;;17.45;9.60;;;;;;;1.36;52.96;92939.20;1624665;87;21104;-46
2022/02/02 04:58:54;;;;;;;94.95;41.20;;;;;;;1.54;52.71;92919.84;1570916;86;21003;-45
2022/02/02 05:09:22;;;;;;;109.90;47.98;;;;;;;1.66;52.31;92919.09;1623687;86;21059;-45
2022/02/02 05:20:11;;;;;;;54.85;28.17;;;;;;;1.82;51.73;92914.32;1644029;85;20980;-44
2022/02/02 05:49:39;;;;;;;45.45;29.65;;;;;;;1.90;51.58;92892.55;1621046;87;21148;-46
2022/02/02 05:51:51;;;;;;;14.43;10.80;;;;;;;1.80;51.58;92893.64;1577261;86;21002;-46
2022/02/02 05:54:18;;;;;;;11.85;8.83;;;;;;;1.75;51.64;92898.27;1609378;86;21082;-46
2022/02/02 05:56:50;;;;;;;15.68;9.95;;;;;;;1.68;51.79;92912.63;1620779;86;20956;-47
2022/02/02 05:59:19;;;;;;;18.80;13.75;;;;;;;1.62;52.04;92914.97;1634763;86;21465;-45
2022/02/02 06:01:53;;;;;;;18.05;14.90;;;;;;;1.59;52.42;92923.39;1640637;86;20940;-46
2022/02/02 06:04:22;;;;;;;27.67;15.80;;;;;;;1.62;52.60;92916.33;1646670;85;21054;-48
2022/02/02 06:06:50;;;;;;;15.55;11.93;;;;;;;1.68;52.76;92913.99;1624522;86;21204;-46
2022/02/02 06:09:19;;;;;;;13.25;11.57;;;;;;;1.79;52.51;92909.00;1630901;86;20990;-46
2022/02/02 06:11:53;;;;;;;25.43;16.77;;;;;;;1.88;52.32;92917.22;1640978;86;21132;-47
2022/02/02 06:14:26;;;;;;;14.07;11.55;;;;;;;1.95;52.40;92908.26;1623841;86;21101;-47
2022/02/02 06:16:54;;;;;;;;;;;;;;;2.05;52.09;92919.95;1608680;86;21097;-47
2022/02/02 06:19:23;;;;;;;9.95;9.00;;;;;;;2.05;52.12;92910.46;1636163;85;20184;-48
2022/02/02 06:22:03;;;;;;;13.13;11.63;;;;;;;2.03;52.10;92914.98;1641322;85;21071;-47
2022/02/02 06:24:33;;;;;;;8.78;7.87;;;;;;;2.02;52.47;92910.75;1641552;83;21177;-49
2022/02/02 06:27:10;;;;;;;9.13;7.80;;;;;;;2.08;52.65;92911.70;1640871;85;21072;-46
2022/02/02 06:29:43;;;;;;;10.75;9.03;;;;;;;2.10;52.62;92905.25;1631998;85;21140;-47
2022/02/02 06:32:14;;;;;;;11.65;8.80;;;;;;;2.10;52.87;92905.86;1635179;85;21109;-55
2022/02/02 06:34:45;;;;;;;15.05;11.12;;;;;;;2.07;52.94;92911.55;1656384;83;21047;-48
2022/02/02 06:37:12;;;;;;;10.32;8.48;;;;;;;2.05;53.19;92918.02;1652976;84;22367;-46
2022/02/02 06:39:39;;;;;;;11.03;9.93;;;;;;;2.13;53.20;92914.47;1665560;84;21110;-50
2022/02/02 06:42:14;;;;;;;11.00;9.90;;;;;;;2.16;53.33;92921.11;1636609;84;21507;-46
2022/02/02 06:44:42;;;;;;;12.78;10.23;;;;;;;2.20;53.41;92928.55;1644275;84;21105;-47
2022/02/02 06:47:09;;;;;;;6.95;6.30;;;;;;;2.27;53.43;92918.05;1639477;85;21105;-48
2022/02/02 06:49:38;;;;;;;8.60;6.60;;;;;;;2.30;53.26;92920.64;1652066;85;21117;-50
2022/02/02 06:52:12;;;;;;;12.35;8.30;;;;;;;2.32;53.38;92939.20;1663088;84;21019;-47
2022/02/02 06:55:07;;;;;;;13.00;7.30;;;;;;;2.36;53.48;92930.34;1649814;84;20999;-48
2022/02/02 06:57:45;;;;;;;8.38;6.45;;;;;;;2.32;53.26;92941.92;1648403;84;20990;-47
2022/02/02 07:01:31;;;;;;;9.23;7.92;;;;;;;2.21;53.63;92944.22;1665431;83;21540;-48
2022/02/02 07:03:04;;;;;;;6.30;5.70;;;;;;;2.16;54.05;92950.20;1659549;84;21120;-48
2022/02/02 07:05:38;;;;;;;6.65;5.95;;;;;;;2.15;54.09;92951.40;1680593;83;21042;-49
2022/02/02 07:11:09;;;;;;;6.92;6.33;;;;;;;2.10;54.82;92939.14;1677983;83;21646;-48
2022/02/02 07:13:34;;;;;;;8.78;7.42;;;;;;;2.12;54.92;92944.14;1666765;83;21511;-50
2022/02/02 07:21:02;;;;;;;20.08;16.32;;;;;;;2.33;54.81;92965.14;1648785;85;21091;-49
2022/02/02 07:34:12;;;;;;;20.08;12.30;;;;;;;2.22;55.22;92946.50;1632999;84;21023;-53
2022/02/02 07:36:42;;;;;;;12.78;9.78;;;;;;;2.17;55.43;92953.07;1611775;85;21129;-48
2022/02/02 07:39:12;;;;;;;18.67;12.75;;;;;;;2.17;55.52;92949.00;1658693;85;21025;-49
2022/02/02 07:41:40;;;;;;;20.90;15.18;;;;;;;2.14;55.70;92948.53;1652617;84;21107;-48
2022/02/02 07:44:14;;;;;;;16.80;14.15;;;;;;;2.14;55.85;92944.46;1627703;85;21076;-49
2022/02/02 07:46:44;;;;;;;14.55;11.12;;;;;;;2.10;56.05;92944.56;1663420;85;21049;-49
2022/02/02 07:49:11;;;;;;;13.85;10.72;;;;;;;2.09;56.19;92942.28;1654357;84;21548;-53
2022/02/02 07:51:39;;;;;;;20.75;13.80;;;;;;;2.16;56.19;92942.06;1664000;83;21190;-51
2022/02/02 07:54:10;;;;;;;20.55;14.87;;;;;;;2.15;56.04;92937.23;1660232;83;21153;-48
2022/02/02 07:56:42;;;;;;;34.53;17.05;;;;;;;2.17;55.91;92951.11;1649767;84;21064;-49
2022/02/02 07:59:48;;;;;;;31.62;13.10;;;;;;;2.30;55.73;92959.23;1654903;82;21170;-47
2022/02/02 08:01:47;;;;;;;21.75;15.78;;;;;;;2.37;55.57;92957.63;1683496;82;21085;-50
2022/02/02 08:04:16;;;;;;;28.67;25.68;;;;;;;2.40;55.12;92963.53;1673625;83;21123;-50
2022/02/02 08:06:49;;;;;;;16.30;12.50;;;;;;;2.50;54.87;92962.44;1673912;83;21137;-50
2022/02/02 08:09:20;;;;;;;21.77;14.10;;;;;;;2.61;54.67;92951.95;1659276;84;21183;-49
2022/02/02 08:11:41;;;;;;;27.85;21.60;;;;;;;2.74;54.57;92954.03;1660828;84;21033;-50
2022/02/02 08:14:08;;;;;;;12.82;11.15;;;;;;;2.91;53.69;92945.25;1634454;86;21081;-52
2022/02/02 08:16:37;;;;;;;11.20;8.93;;;;;;;3.05;53.59;92946.11;1630303;86;22041;-48
2022/02/02 08:19:04;;;;;;;10.38;9.03;;;;;;;3.19;52.83;92940.75;1675914;84;21172;-53
2022/02/02 08:21:31;;;;;;;9.38;8.30;;;;;;;3.24;52.38;92933.41;1657114;84;22216;-49
2022/02/02 08:23:57;;;;;;;13.83;11.03;;;;;;;3.25;52.33;92941.72;1647899;85;21090;-53
2022/02/02 08:26:24;;;;;;;7.37;6.00;;;;;;;3.21;52.40;92941.09;1647664;85;21094;-52
2022/02/02 08:28:56;;;;;;;10.48;9.08;;;;;;;3.25;52.18;92951.23;1661680;83;21173;-49
2022/02/02 08:31:21;;;;;;;15.65;14.05;;;;;;;3.39;52.47;92945.27;1676731;84;21822;-52
2022/02/02 08:33:49;;;;;;;7.72;7.00;;;;;;;3.64;52.23;92924.85;1654527;84;21204;-50
2022/02/02 08:36:19;;;;;;;10.48;9.55;;;;;;;3.82;51.26;92936.38;1646024;84;21058;-50
2022/02/02 08:41:25;;;;;;;;;;;;;;;3.87;51.13;92923.58;1682842;83;21017;-49
2022/02/02 08:43:55;;;;;;;20.95;16.05;;;;;;;3.91;50.27;92924.94;1695183;83;21793;-53
2022/02/02 08:46:25;;;;;;;10.32;8.25;;;;;;;4.06;50.39;92923.79;1682803;83;21139;-48
2022/02/02 08:48:48;;;;;;;12.40;6.80;;;;;;;4.25;49.94;92926.08;1683724;83;21094;-51
2022/02/02 08:51:18;;;;;;;8.03;6.67;;;;;;;4.44;49.62;92924.91;1670493;83;21046;-50
2022/02/02 08:58:47;;;;;;;12.50;7.37;;;;;;;5.25;47.03;92944.72;1656101;82;21937;-51
2022/02/02 09:01:24;;;;;;;6.20;5.60;;;;;;;5.49;45.92;92942.10;1681570;81;21101;-50
2022/02/02 09:06:34;;;;;;;26.30;21.02;;;;;;;5.27;47.07;92941.55;1660012;83;21047;-57
2022/02/02 09:09:20;;;;;;;7.87;7.22;;;;;;;5.33;46.57;92939.12;1685081;83;21655;-51
2022/02/02 09:25:36;;;;;;;8.75;7.92;;;;;;;7.29;41.26;92946.73;1639502;85;21038;-51
2022/02/02 09:35:47;;;;;;;4.80;4.40;;;;;;;8.04;39.32;92940.19;1644189;84;21145;-49
2022/02/02 09:38:15;;;;;;;4.33;4.03;;;;;;;8.08;39.72;92935.27;1663335;84;20978;-49
2022/02/02 09:41:17;;;;;;;3.77;3.47;;;;;;;8.14;38.94;92943.70;1670353;83;20928;-52
2022/02/02 09:43:21;;;;;;;4.62;3.27;;;;;;;8.21;39.06;92936.48;1673624;83;20994;-49
2022/02/02 09:45:53;;;;;;;13.75;9.15;;;;;;;8.19;39.43;92930.73;1673636;84;21449;-49
2022/02/02 09:48:27;;;;;;;8.60;7.70;;;;;;;8.21;39.31;92937.86;1661909;83;21930;-49
2022/02/02 09:50:55;;;;;;;3.45;3.15;;;;;;;8.22;39.21;92930.41;1679754;83;21541;-50
2022/02/02 09:53:29;;;;;;;3.60;3.30;;;;;;;8.37;38.63;92931.11;1653615;84;21871;-50
2022/02/02 09:56:02;;;;;;;3.80;3.50;;;;;;;8.47;38.50;92934.61;1679412;83;21132;-48
2022/02/02 10:13:03;;;;;;;17.57;13.30;;;;;;;8.67;38.17;92923.70;1678551;83;21028;-52
2022/02/02 10:15:17;;;;;;;9.10;7.62;;;;;;;8.44;38.27;92916.39;1670423;83;21141;-52
2022/02/02 10:17:47;;;;;;;8.65;7.42;;;;;;;7.90;39.06;92931.37;1684439;81;21061;-49
2022/02/02 10:20:22;;;;;;;7.95;7.05;;;;;;;7.38;40.28;92928.11;1689916;83;21489;-50
2022/02/02 10:22:52;;;;;;;7.90;5.97;;;;;;;6.99;41.01;92929.97;1680559;83;21116;-48
2022/02/02 10:25:30;;;;;;;10.93;7.47;;;;;;;6.62;41.81;92930.86;1684489;83;21073;-53
2022/02/02 10:28:19;;;;;;;11.22;7.47;;;;;;;6.32;42.87;92929.22;1688594;81;21140;-54
2022/02/02 10:30:49;;;;;;;11.38;7.33;;;;;;;6.00;43.36;92929.97;1698754;82;21200;-52
2022/02/02 10:33:22;;;;;;;11.03;6.60;;;;;;;5.87;43.80;92937.63;1692351;83;21749;-49
2022/02/02 10:35:55;;;;;;;5.75;4.67;;;;;;;5.89;44.05;92943.97;1664613;84;21064;-49
2022/02/02 10:38:28;;;;;;;12.78;8.73;;;;;;;5.88;44.45;92945.96;1681375;83;21009;-47
2022/02/02 10:41:18;;;;;;;11.55;7.08;;;;;;;6.12;44.05;92941.93;1645315;85;21233;-50
2022/02/02 10:43:53;;;;;;;8.85;6.12;;;;;;;6.44;43.93;92942.49;1603016;86;21063;-52
2022/02/02 10:49:12;;;;;;;8.40;6.37;;;;;;;6.90;42.89;92945.83;1674476;83;21218;-50
2022/02/02 10:51:47;;;;;;;6.70;4.65;;;;;;;6.91;42.56;92946.59;1679493;82;21124;-52
2022/02/02 10:54:24;;;;;;;6.97;4.50;;;;;;;6.89;42.85;92950.41;1644303;85;21171;-48
2022/02/02 10:57:04;;;;;;;5.15;4.28;;;;;;;6.66;42.91;92944.35;1636486;85;21081;-50
2022/02/02 10:59:58;;;;;;;3.75;3.45;;;;;;;6.41;43.82;92950.25;1637893;85;21122;-54
2022/02/02 11:07:26;;;;;;;5.12;4.40;;;;;;;7.83;41.78;92940.72;1615484;86;21156;-52
2022/02/02 11:09:54;;;;;;;4.22;3.77;;;;;;;8.57;40.60;92949.72;1615297;86;21029;-51
2022/02/02 11:12:25;;;;;;;5.00;3.87;;;;;;;9.05;39.57;92935.77;1639834;86;21027;-54
2022/02/02 11:15:04;;;;;;;5.37;3.83;;;;;;;9.26;38.71;92930.41;1640332;86;21067;-54
2022/02/02 11:17:52;;;;;;;3.83;2.60;;;;;;;9.47;38.38;92927.75;1651224;83;21032;-54
2022/02/02 11:20:19;;;;;;;7.67;6.37;;;;;;;9.08;38.63;92936.18;1677471;82;21815;-52
2022/02/02 11:22:57;;;;;;;8.75;7.87;;;;;;;8.97;39.06;92936.80;1608187;84;21133;-50
2022/02/02 11:25:33;;;;;;;9.00;8.10;;;;;;;9.32;38.71;92936.70;1654593;84;21029;-50
2022/02/02 11:27:57;;;;;;;7.53;5.67;;;;;;;9.99;37.92;92935.48;1669423;83;21051;-50
2022/02/02 11:30:30;;;;;;;4.65;3.37;;;;;;;10.44;36.85;92939.35;1671079;85;21578;-50
2022/02/02 11:33:03;;;;;;;3.05;2.75;;;;;;;10.99;36.52;92934.30;1670863;85;21299;-50
2022/02/02 11:35:45;;;;;;;4.17;3.77;;;;;;;11.70;35.52;92939.34;1716837;81;21090;-49
2022/02/02 11:38:19;;;;;;;11.70;10.50;;;;;;;11.92;34.50;92946.27;1662031;84;21055;-48
2022/02/02 11:41:15;;;;;;;3.90;2.80;;;;;;;12.20;33.77;92951.81;1656088;85;21282;-50
2022/02/02 11:43:58;;;;;;;5.65;5.10;;;;;;;12.64;33.45;92948.42;1697293;83;21123;-48
2022/02/02 11:49:51;;;;;;;25.55;20.08;;;;;;;12.38;33.14;92947.95;1604397;87;21073;-50
2022/02/02 11:52:45;;;;;;;32.67;25.10;;;;;;;11.47;34.37;92946.62;1661078;84;20998;-54
2022/02/02 11:55:21;;;;;;;27.00;16.10;;;;;;;11.06;34.96;92954.50;1658064;84;21234;-47
2022/02/02 11:58:20;;;;;;;14.47;7.28;;;;;;;10.91;35.01;92949.02;1640561;83;21347;-53
2022/02/02 12:01:13;;;;;;;9.98;5.55;;;;;;;11.34;34.93;92956.73;1664582;84;21780;-51
2022/02/02 12:03:57;;;;;;;;;;;;;;;;;;;;;
2022/02/02 12:06:28;;;;;;;5.22;3.87;;;;;;;13.45;32.80;92943.23;1676960;84;21489;-50
2022/02/02 12:08:56;;;;;;;6.03;5.42;;;;;;;14.14;31.65;92957.80;1666960;84;21169;-51
2022/02/02 12:11:28;;;;;;;3.08;2.72;;;;;;;14.45;30.37;92958.11;1677490;83;21085;-50
2022/02/02 12:57:48;;;;;;;4.75;4.28;;;;;;;9.74;35.52;93000.02;1643072;85;21134;-51
2022/02/02 13:00:14;;;;;;;11.53;8.55;;;;;;;8.90;37.04;92999.52;1662822;84;21033;-51
2022/02/02 13:02:45;;;;;;;8.15;5.50;;;;;;;8.18;38.44;93007.28;1685607;84;21042;-49
2022/02/02 13:05:12;;;;;;;8.18;6.72;;;;;;;7.61;39.69;93006.61;1664861;83;21076;-49
2022/02/02 13:07:42;;;;;;;12.68;8.50;;;;;;;7.11;40.70;93011.73;1669964;83;21135;-52
2022/02/02 13:10:20;;;;;;;14.00;8.08;;;;;;;6.70;41.55;93010.50;1662172;84;21810;-50
2022/02/02 13:13:01;;;;;;;12.10;8.13;;;;;;;6.45;42.76;93016.38;1675862;84;21050;-50
2022/02/02 13:20:49;;;;;;;13.15;7.92;;;;;;;5.86;44.55;93028.11;1683046;83;21156;-49
2022/02/02 13:23:34;;;;;;;8.20;6.40;;;;;;;5.70;45.09;93037.97;1665417;85;21077;-52
2022/02/02 13:26:07;;;;;;;7.25;6.40;;;;;;;5.55;45.17;93035.70;1619739;86;21884;-54
2022/02/02 13:29:04;;;;;;;8.80;7.83;;;;;;;5.52;45.66;93042.08;1656544;84;21061;-51
2022/02/02 13:34:32;;;;;;;7.95;6.40;;;;;;;5.94;45.19;93040.98;1690241;82;21334;-49
2022/02/02 13:37:34;;;;;;;5.20;4.70;;;;;;;6.14;44.84;93050.04;1676711;83;21060;-49
2022/02/02 13:51:27;;;;;;;15.80;8.43;;;;;;;10.49;38.38;93047.25;1689151;83;21027;-53
2022/02/02 13:53:09;;;;;;;7.97;5.30;;;;;;;11.24;37.01;93050.41;1654657;83;21062;-48
2022/02/02 13:55:37;;;;;;;8.40;5.37;;;;;;;11.03;36.22;93053.16;1675822;84;21038;-48
2022/02/02 13:58:33;;;;;;;5.67;3.60;;;;;;;10.84;36.11;93054.02;1643113;83;21082;-48
2022/02/02 14:00:54;;;;;;;6.00;3.92;;;;;;;10.81;35.70;93060.50;1651667;84;21155;-50
2022/02/02 14:06:18;;;;;;;4.78;3.77;;;;;;;9.76;37.11;93052.48;1659807;83;21073;-48
2022/02/02 14:33:00;;;;;;;8.50;5.33;;;;;;;6.46;43.86;93087.53;1707042;83;21028;-48
2022/02/02 14:35:27;;;;;;;7.67;5.80;;;;;;;6.13;44.23;93089.47;1690153;83;21122;-47
2022/02/02 14:37:55;;;;;;;14.28;10.70;;;;;;;5.68;45.16;93100.41;1660037;83;21021;-51
2022/02/02 14:40:33;;;;;;;12.10;8.88;;;;;;;5.24;46.15;93100.55;1677732;82;21790;-48
2022/02/02 14:42:56;;;;;;;14.38;11.03;;;;;;;4.86;46.95;93098.82;1660364;84;21016;-46
2022/02/02 14:45:25;;;;;;;12.55;10.15;;;;;;;4.51;47.68;93102.17;1655596;84;21047;-46
2022/02/02 14:47:56;;;;;;;14.83;11.55;;;;;;;4.31;48.50;93099.84;1654410;85;21131;-47
2022/02/02 14:50:27;;;;;;;9.88;7.80;;;;;;;4.11;49.08;93115.77;1655977;84;21067;-49
2022/02/02 14:55:54;;;;;;;17.07;12.82;;;;;;;3.80;49.88;93118.27;1631952;86;21000;-48
2022/02/02 15:16:55;;;;;;;24.05;15.58;;;;;;;3.28;52.27;93136.45;1668323;84;21050;-50
2022/02/02 15:27:21;;;;;;;39.58;20.17;;;;;;;3.02;53.86;93145.87;1646497;85;21061;-49
2022/02/02 15:32:16;;;;;;;;;;;;;;;2.86;54.51;93158.97;1645539;85;21168;-50
2022/02/02 15:34:47;;;;;;;35.10;20.25;;;;;;;2.82;55.06;93160.27;1639137;84;20219;-48
2022/02/02 15:37:26;;;;;;;42.50;22.98;;;;;;;2.73;55.19;93154.75;1661190;84;21115;-48
2022/02/02 15:40:00;;;;;;;35.85;20.82;;;;;;;2.67;55.49;93167.36;1679988;83;21090;-48
2022/02/02 15:42:35;;;;;;;32.08;18.15;;;;;;;2.62;55.77;93171.37;1670949;83;21274;-46
2022/02/02 15:45:05;;;;;;;34.48;18.30;;;;;;;2.62;55.96;93171.95;1672569;84;22130;-49
2022/02/02 15:58:19;;;;;;;37.05;20.88;;;;;;;2.58;56.54;93199.80;1670807;84;21541;-46
2022/02/02 16:03:16;;;;;;;74.15;41.65;;;;;;;2.63;56.54;93206.05;1668351;84;20982;-47
2022/02/02 16:05:49;;;;;;;44.15;26.48;;;;;;;2.63;56.51;93201.39;1657873;84;21159;-46
2022/02/02 16:08:15;;;;;;;38.05;22.52;;;;;;;2.66;56.65;93207.91;1658164;84;21032;-47
2022/02/02 16:13:25;;;;;;;34.73;20.57;;;;;;;2.58;56.62;93209.30;1690322;84;21142;-48
2022/02/02 16:15:37;;;;;;;32.63;18.32;;;;;;;2.56;56.82;93214.41;1672270;83;21096;-48
2022/02/02 16:18:34;;;;;;;29.75;17.80;;;;;;;2.53;56.79;93220.70;1671192;83;21090;-51
2022/02/02 16:31:57;;;;;;;25.25;16.35;;;;;;;2.48;56.71;93230.75;1697064;84;21498;-47
2022/02/02 16:37:01;;;;;;;40.25;19.35;;;;;;;2.43;56.67;93244.25;1695319;83;21123;-48
2022/02/02 16:39:25;;;;;;;28.23;17.67;;;;;;;2.39;56.88;93244.17;1662653;84;21112;-46
2022/02/02 16:44:37;;;;;;;36.40;21.77;;;;;;;2.39;56.82;93249.61;1650836;84;20974;-47
2022/02/02 16:47:04;;;;;;;28.52;17.98;;;;;;;2.37;56.99;93250.05;1652281;83;21097;-48
2022/02/02 16:49:31;;;;;;;112.17;71.50;;;;;;;2.39;57.07;93246.89;1670334;84;21167;-48
2022/02/02 16:51:58;;;;;;;58.78;37.78;;;;;;;2.40;57.04;93249.77;1656621;85;21114;-48
2022/02/02 16:54:36;;;;;;;31.00;21.40;;;;;;;2.44;57.02;93251.78;1625659;85;21070;-46
2022/02/02 16:57:20;;;;;;;;;;;;;;;2.50;56.88;93254.89;1713754;81;21550;-48
2022/02/02 17:34:54;;;;;;;74.53;44.15;;;;;;;2.33;57.36;93273.05;1657544;86;21445;-47
2022/02/02 18:12:27;;;;;;;85.75;40.50;;;;;;;2.12;57.86;93285.84;1651216;85;21186;-47
2022/02/02 18:20:06;;;;;;;113.28;53.65;;;;;;;2.08;57.97;93294.06;1634416;86;21583;-47
2022/02/02 18:22:38;;;;;;;134.37;63.95;;;;;;;2.09;58.09;93290.73;1688057;84;21181;-47
2022/02/02 18:25:10;;;;;;;485.90;270.57;;;;;;;2.06;57.91;93287.53;1682622;83;21021;-49
2022/02/02 18:27:42;;;;;;;413.98;266.45;;;;;;;1.95;58.11;93296.56;1689875;83;20991;-47
2022/02/02 18:33:09;;;;;;;113.35;67.85;;;;;;;1.67;58.75;93298.63;1699780;84;20995;-48
2022/02/02 18:35:21;;;;;;;88.05;50.50;;;;;;;1.63;59.16;93307.45;1690290;83;21715;-47
2022/02/02 18:43:34;;;;;;;107.50;51.68;;;;;;;1.64;59.38;93310.91;1581938;88;21018;-47
2022/02/02 18:46:08;;;;;;;121.53;73.55;;;;;;;1.48;59.54;93321.17;1551731;89;21006;-46
2022/02/02 18:53:45;;;;;;;114.97;57.67;;;;;;;1.21;60.28;93323.38;1676140;84;21041;-46
2022/02/02 18:56:22;;;;;;;115.67;56.15;;;;;;;1.15;60.29;93322.34;1667464;84;21066;-47
2022/02/02 18:58:59;;;;;;;110.05;55.55;;;;;;;1.12;60.53;93331.31;1696322;84;21010;-47
2022/02/02 19:01:31;;;;;;;113.00;54.98;;;;;;;1.10;60.48;93341.81;1698422;82;21173;-46
2022/02/02 19:04:08;;;;;;;120.40;59.95;;;;;;;1.07;60.59;93331.83;1692105;82;20959;-47
2022/02/02 19:06:50;;;;;;;135.63;63.80;;;;;;;1.05;60.74;93342.31;1694306;83;21050;-48
2022/02/02 19:55:52;;;;;;;89.37;42.15;;;;;;;0.72;60.90;93383.23;1659810;86;21924;-49
2022/02/02 20:03:58;;;;;;;81.67;40.00;;;;;;;0.25;61.86;93394.78;1670806;85;21087;-47
2022/02/02 20:11:40;;;;;;;102.72;48.35;;;;;;;-0.20;62.51;93392.14;1645170;85;20992;-47
2022/02/02 20:14:07;;;;;;;69.90;35.70;;;;;;;-0.40;63.00;93384.57;1654164;85;21444;-47
2022/02/02 20:16:34;;;;;;;76.17;36.38;;;;;;;-0.44;63.49;93385.22;1662347;84;21017;-48
2022/02/02 20:19:05;;;;;;;286.45;88.85;;;;;;;-0.42;63.71;93389.62;1667954;83;21134;-48
2022/02/02 20:21:43;;;;;;;339.75;108.63;;;;;;;-0.42;63.67;93403.88;1659640;84;21101;-47
2022/02/02 20:24:01;;;;;;;271.93;93.85;;;;;;;-0.45;63.95;93402.00;1639455;84;20993;-48
2022/02/02 20:26:29;;;;;;;301.92;100.33;;;;;;;-0.42;64.08;93406.58;1658937;85;21004;-47
2022/02/02 20:28:59;;;;;;;220.93;76.45;;;;;;;-0.35;63.97;93414.58;1645500;86;21465;-48
2022/02/02 20:31:25;;;;;;;173.30;66.82;;;;;;;-0.32;63.82;93414.33;1649894;85;21000;-47
2022/02/02 20:33:52;;;;;;;183.30;72.80;;;;;;;-0.35;63.59;93419.20;1651036;84;21134;-47
2022/02/02 20:36:18;;;;;;;161.25;65.03;;;;;;;-0.44;63.75;93424.38;1622968;85;20992;-47
2022/02/02 20:38:45;;;;;;;178.95;70.78;;;;;;;-0.46;64.03;93421.30;1652598;85;22322;-46
2022/02/02 20:41:12;;;;;;;179.12;73.47;;;;;;;-0.38;64.11;93426.18;1676740;84;21634;-47
2022/02/02 21:10:32;;;;;;;85.22;37.78;;;;;;;-0.19;63.32;93476.83;1673855;84;21024;-47
2022/02/02 21:15:47;;;;;;;147.60;57.65;;;;;;;-0.34;63.64;93472.84;1670916;85;20972;-48
2022/02/02 21:18:20;;;;;;;145.30;56.65;;;;;;;-0.38;63.72;93464.00;1666489;85;21041;-47
2022/02/02 21:20:58;;;;;;;119.77;51.85;;;;;;;-0.40;63.67;93472.35;1692539;82;21046;-46
2022/02/02 21:28:25;;;;;;;157.85;69.60;;;;;;;-0.64;64.11;93497.75;1639314;84;21001;-47
2022/02/02 21:30:52;;;;;;;188.27;80.75;;;;;;;-0.69;64.10;93489.55;1667405;84;21095;-47
2022/02/02 21:33:20;;;;;;;193.65;84.47;;;;;;;-0.75;64.20;93500.59;1665971;85;21099;-46
2022/02/02 21:35:49;;;;;;;161.28;76.57;;;;;;;-0.77;64.28;93500.84;1656812;86;21440;-47
2022/02/02 21:38:32;;;;;;;150.90;67.95;;;;;;;-0.73;64.55;93513.13;1652921;85;22096;-47
2022/02/02 21:40:56;;;;;;;163.97;76.37;;;;;;;-0.68;64.56;93511.89;1654226;84;21620;-47
2022/02/02 21:43:23;;;;;;;194.40;78.92;;;;;;;-0.59;64.60;93513.52;1651937;85;21127;-48
2022/02/02 21:45:49;;;;;;;201.27;80.65;;;;;;;-0.54;64.52;93522.50;1655031;84;21079;-46
2022/02/02 21:48:18;;;;;;;161.73;72.75;;;;;;;-0.46;64.60;93527.98;1653946;85;21197;-46
2022/02/02 21:50:56;;;;;;;147.70;66.17;;;;;;;-0.35;64.58;93532.66;1639811;86;21146;-47
2022/02/02 21:53:20;;;;;;;158.57;68.92;;;;;;;-0.32;64.02;93535.89;1641135;86;21504;-55
2022/02/02 21:55:47;;;;;;;152.57;62.38;;;;;;;-0.35;63.90;93527.25;1652195;86;21004;-47